Time;durP1;ratioP1;P1;durP2;ratioP2;P2;SDS_P1;SDS_P2;PMS_P1;PMS_P2;Temp;Humidity;BMP_temperature;BMP_pressure;BME280_temperature;BME280_humidity;BME280_pressure;Samples;Min_cycle;Max_cycle;Signal;HPM_P1;HPM_P2
2022/02/17 00:04:00;;;;;;;1.08;0.40;;;;;;;12.44;67.01;97886.50;10321330;28;20048;-72
2022/02/17 00:09:02;;;;;;;0.82;0.60;;;;;;;12.08;68.88;97892.72;10329529;28;20050;-72
2022/02/17 00:14:04;;;;;;;0.55;0.50;;;;;;;12.05;68.99;97900.84;10319522;28;20057;-72
2022/02/17 00:19:06;;;;;;;0.28;0.28;;;;;;;11.82;70.22;97889.19;10321855;28;20089;-71
2022/02/17 00:24:07;;;;;;;0.43;0.40;;;;;;;11.80;70.07;97872.81;10318440;28;20050;-71
2022/02/17 00:29:09;;;;;;;0.63;0.40;;;;;;;11.66;71.12;97881.19;10324646;28;20060;-71
2022/02/17 00:34:13;;;;;;;0.80;0.50;;;;;;;11.55;71.22;97863.03;10322286;28;20297;-70
2022/02/17 00:39:14;;;;;;;1.50;0.50;;;;;;;11.56;71.88;97862.09;10320726;28;20054;-71
2022/02/17 00:44:16;;;;;;;0.38;0.38;;;;;;;11.62;71.43;97858.88;10324890;28;20042;-71
2022/02/17 00:49:18;;;;;;;0.60;0.40;;;;;;;11.58;71.28;97844.44;10310483;28;20065;-70
2022/02/17 00:54:20;;;;;;;0.40;0.38;;;;;;;11.50;71.87;97839.13;10313547;28;20312;-70
2022/02/17 00:59:22;;;;;;;0.30;0.30;;;;;;;11.52;71.62;97861.53;10310118;28;20046;-71
2022/02/17 01:04:24;;;;;;;0.77;0.50;;;;;;;11.51;71.45;97857.28;10306956;28;20046;-70
2022/02/17 01:09:26;;;;;;;0.32;0.30;;;;;;;11.48;71.46;97857.56;10309911;28;20053;-70
2022/02/17 01:14:28;;;;;;;0.30;0.30;;;;;;;11.67;70.82;97864.47;10315805;28;20141;-70
2022/02/17 01:19:30;;;;;;;0.45;0.30;;;;;;;11.70;70.55;97845.88;10313185;28;20052;-70
2022/02/17 01:24:31;;;;;;;0.80;0.30;;;;;;;11.76;69.42;97840.88;10307740;28;20057;-71
2022/02/17 01:29:33;;;;;;;0.30;0.30;;;;;;;11.75;68.40;97847.06;10316469;28;20058;-70
2022/02/17 01:34:35;;;;;;;1.40;0.30;;;;;;;11.83;67.58;97846.31;10307584;28;20054;-70
2022/02/17 01:39:37;;;;;;;1.75;0.30;;;;;;;12.10;66.83;97847.06;10314063;28;20525;-70
2022/02/17 01:44:38;;;;;;;0.30;0.30;;;;;;;11.94;68.79;97880.97;10309073;28;20065;-70
2022/02/17 01:49:41;;;;;;;0.77;0.43;;;;;;;11.75;69.17;97851.47;10305946;28;20080;-70
2022/02/17 01:54:45;;;;;;;0.13;0.13;;;;;;;11.80;68.47;97878.03;10309893;28;20056;-69
2022/02/17 01:59:47;;;;;;;0.38;0.28;;;;;;;11.92;67.88;97896.03;10306178;28;20153;-70
2022/02/17 02:04:49;;;;;;;0.40;0.40;;;;;;;11.99;68.11;97883.94;10305847;28;20061;-70
2022/02/17 02:09:53;;;;;;;1.08;0.40;;;;;;;11.76;69.63;97893.25;10305716;28;20525;-70
2022/02/17 02:14:56;;;;;;;5.63;0.80;;;;;;;11.41;70.45;97956.00;10306101;28;20112;-70
2022/02/17 02:19:58;;;;;;;3.65;0.95;;;;;;;11.51;68.95;97940.22;10312172;28;20068;-70
2022/02/17 02:25:01;;;;;;;3.08;0.88;;;;;;;11.45;66.56;97964.38;10310989;28;20513;-69
2022/02/17 02:30:05;;;;;;;4.25;1.30;;;;;;;11.30;61.45;97977.94;10307088;28;20137;-70
2022/02/17 02:35:07;;;;;;;6.53;1.50;;;;;;;11.15;58.39;97968.88;10323322;28;20059;-70
2022/02/17 02:40:09;;;;;;;6.22;1.60;;;;;;;11.04;57.09;97990.00;10305647;28;20426;-70
2022/02/17 02:45:10;;;;;;;7.15;1.77;;;;;;;10.93;55.80;98016.25;10306058;28;20133;-70
2022/02/17 02:50:12;;;;;;;7.30;1.75;;;;;;;10.90;56.11;98011.31;10305056;28;20491;-70
2022/02/17 02:55:14;;;;;;;7.97;1.80;;;;;;;10.78;55.73;98020.28;10305256;28;20185;-69
2022/02/17 03:00:16;;;;;;;8.55;2.00;;;;;;;10.68;55.88;98023.88;10312386;28;20236;-69
2022/02/17 03:05:17;;;;;;;9.52;1.90;;;;;;;10.72;55.75;98035.69;10315843;28;20049;-69
2022/02/17 03:10:19;;;;;;;8.85;2.00;;;;;;;10.80;56.68;98036.66;10313342;28;20669;-71
2022/02/17 03:15:22;;;;;;;7.63;2.10;;;;;;;10.73;55.95;98055.63;10310427;28;20046;-68
2022/02/17 03:20:24;;;;;;;9.60;2.30;;;;;;;10.79;56.05;98053.31;10338859;28;20046;-69
2022/02/17 03:25:26;;;;;;;16.05;2.13;;;;;;;10.78;56.49;98085.66;10310822;28;20058;-68
2022/02/17 03:30:30;;;;;;;8.45;2.20;;;;;;;10.79;55.06;98089.06;10318392;28;20053;-68
2022/02/17 03:35:32;;;;;;;11.80;2.53;;;;;;;10.96;54.06;98119.78;10322467;28;20133;-69
2022/02/17 03:40:33;;;;;;;12.18;2.75;;;;;;;10.98;53.91;98099.53;10333320;28;20058;-68
2022/02/17 03:45:35;;;;;;;11.55;2.30;;;;;;;10.90;53.63;98115.94;10317965;28;20133;-69
2022/02/17 03:50:37;;;;;;;9.80;2.50;;;;;;;10.93;53.31;98133.94;10333170;28;20078;-69
2022/02/17 03:55:39;;;;;;;14.90;3.10;;;;;;;10.79;49.61;98116.06;10328011;28;20058;-68
2022/02/17 04:00:40;;;;;;;13.98;3.00;;;;;;;10.68;46.98;98131.88;10330993;28;20130;-69
2022/02/17 04:05:42;;;;;;;13.90;3.28;;;;;;;10.54;46.39;98188.94;10323331;28;20084;-69
2022/02/17 04:10:44;;;;;;;11.60;2.85;;;;;;;10.71;47.77;98181.28;10310549;28;20042;-69
2022/02/17 04:15:46;;;;;;;17.48;3.30;;;;;;;10.68;47.70;98184.19;10317588;28;20050;-69
2022/02/17 04:20:48;;;;;;;11.07;3.03;;;;;;;10.65;48.61;98202.72;10309785;28;20161;-69
2022/02/17 04:25:50;;;;;;;17.63;3.88;;;;;;;10.61;48.35;98209.19;10336617;28;20133;-69
2022/02/17 04:30:52;;;;;;;18.08;3.83;;;;;;;10.31;48.28;98204.00;10310127;28;20586;-69
2022/02/17 04:35:53;;;;;;;18.48;3.88;;;;;;;10.52;48.68;98233.53;10309306;28;20165;-69
2022/02/17 04:46:16;;;;;;;;;;;;;;;10.20;48.52;98246.72;10326083;28;20100;-69
2022/02/17 04:51:18;;;;;;;18.35;3.88;;;;;;;10.56;48.93;98247.16;10320141;28;20432;-69
2022/02/17 04:56:21;;;;;;;16.63;3.60;;;;;;;10.47;48.39;98251.38;10314842;28;20054;-70
2022/02/17 05:01:23;;;;;;;20.45;4.53;;;;;;;10.41;48.19;98268.41;10305925;28;20507;-69
2022/02/17 05:06:24;;;;;;;19.88;4.20;;;;;;;10.29;48.55;98284.31;10310651;28;20419;-69
2022/02/17 05:11:26;;;;;;;23.95;5.70;;;;;;;10.12;49.03;98297.94;10307781;28;20058;-70
2022/02/17 05:16:28;;;;;;;28.33;10.88;;;;;;;10.35;48.62;98334.28;10322206;28;20688;-70
2022/02/17 05:21:30;;;;;;;24.23;9.75;;;;;;;10.33;48.20;98312.66;10306581;28;20046;-70
2022/02/17 05:26:34;;;;;;;17.08;4.10;;;;;;;10.33;48.75;98341.41;10334774;28;20054;-69
2022/02/17 05:31:35;;;;;;;18.83;4.72;;;;;;;10.21;47.73;98325.94;10308340;28;20058;-70
2022/02/17 05:36:37;;;;;;;19.45;4.47;;;;;;;10.19;48.17;98326.06;10314366;28;20197;-70
2022/02/17 05:41:39;;;;;;;20.73;4.53;;;;;;;10.22;48.30;98356.31;10332468;28;20513;-70
2022/02/17 05:46:41;;;;;;;16.90;4.40;;;;;;;10.27;48.90;98369.81;10307391;28;20050;-70
2022/02/17 05:51:42;;;;;;;22.83;4.68;;;;;;;10.10;48.92;98363.38;10315938;28;20049;-70
2022/02/17 05:56:44;;;;;;;22.88;5.07;;;;;;;10.14;49.41;98362.16;10321571;28;20414;-70
2022/02/17 06:01:46;;;;;;;19.08;4.95;;;;;;;10.10;50.95;98379.06;10316110;28;20068;-70
2022/02/17 06:06:48;;;;;;;21.42;4.85;;;;;;;10.01;51.07;98381.59;10314088;28;20064;-70
2022/02/17 06:11:49;;;;;;;23.33;4.78;;;;;;;9.95;50.72;98393.34;10329135;28;20384;-70
2022/02/17 06:16:51;;;;;;;22.85;4.95;;;;;;;9.82;50.76;98394.47;10308136;28;20046;-70
2022/02/17 06:21:53;;;;;;;22.73;4.90;;;;;;;9.86;50.62;98394.13;10311734;28;20134;-70
2022/02/17 06:26:55;;;;;;;23.83;5.15;;;;;;;9.89;50.30;98429.59;10324633;28;20531;-70
2022/02/17 06:31:56;;;;;;;19.92;4.63;;;;;;;9.64;49.52;98420.25;10338605;28;20062;-70
2022/02/17 06:36:58;;;;;;;21.15;4.53;;;;;;;9.68;49.31;98423.47;10307051;28;20050;-70
2022/02/17 06:42:00;;;;;;;21.63;4.68;;;;;;;9.65;48.68;98456.69;10303767;28;20132;-70
2022/02/17 06:47:03;;;;;;;25.33;5.00;;;;;;;9.60;48.73;98439.72;10328057;28;20137;-70
2022/02/17 06:52:06;;;;;;;25.55;5.90;;;;;;;9.65;48.92;98448.00;10310670;28;20042;-71
2022/02/17 06:57:08;;;;;;;20.42;4.85;;;;;;;9.62;49.02;98469.16;10307176;28;20124;-70
2022/02/17 07:02:09;;;;;;;24.88;6.32;;;;;;;9.54;49.01;98463.69;10305146;28;20050;-70
2022/02/17 07:07:11;;;;;;;21.05;5.28;;;;;;;9.43;48.51;98466.31;10326781;28;20145;-71
2022/02/17 07:12:14;;;;;;;24.80;5.35;;;;;;;9.55;48.87;98474.00;10320079;28;20056;-70
2022/02/17 07:17:18;;;;;;;27.02;5.03;;;;;;;9.49;49.40;98497.16;10312027;28;20054;-70
2022/02/17 07:22:20;;;;;;;23.48;4.72;;;;;;;9.40;50.40;98498.69;10324337;28;20050;-70
2022/02/17 07:27:22;;;;;;;21.98;5.05;;;;;;;9.50;50.56;98498.81;10315349;28;20410;-70
2022/02/17 07:32:23;;;;;;;26.83;5.63;;;;;;;9.51;49.55;98521.34;10316946;28;20060;-71
2022/02/17 07:37:25;;;;;;;23.25;5.00;;;;;;;9.68;48.91;98520.91;10323592;28;20054;-71
2022/02/17 07:42:27;;;;;;;21.02;4.88;;;;;;;9.69;48.34;98524.34;10310956;28;20054;-70
2022/02/17 07:47:29;;;;;;;26.27;5.13;;;;;;;9.58;47.20;98541.63;10342286;28;20069;-71
2022/02/17 07:52:31;;;;;;;19.33;4.63;;;;;;;9.91;46.15;98563.50;10311392;28;20049;-70
2022/02/17 07:57:32;;;;;;;19.60;4.88;;;;;;;10.15;45.88;98564.16;10316845;28;20465;-70
2022/02/17 08:02:34;;;;;;;26.15;4.95;;;;;;;10.30;45.18;98568.16;10351184;28;20412;-71
2022/02/17 08:07:38;;;;;;;19.17;4.40;;;;;;;10.23;44.17;98588.72;10330805;28;20057;-71
2022/02/17 08:12:41;;;;;;;18.92;4.68;;;;;;;10.10;44.39;98626.38;10325313;28;20058;-70
2022/02/17 08:17:45;;;;;;;25.85;5.20;;;;;;;10.16;44.70;98602.38;10329391;28;20068;-70
2022/02/17 08:22:51;;;;;;;18.75;4.47;;;;;;;10.29;43.52;98644.88;10318683;28;20137;-70
2022/02/17 08:27:56;;;;;;;20.45;4.43;;;;;;;10.38;43.75;98631.09;10323437;28;20053;-71
2022/02/17 08:32:58;;;;;;;21.70;4.63;;;;;;;10.36;43.57;98656.50;10309084;28;20253;-71
2022/02/17 08:38:00;;;;;;;22.63;4.35;;;;;;;10.33;43.23;98656.75;10308642;28;20042;-70
2022/02/17 08:43:08;;;;;;;22.17;5.07;;;;;;;10.47;42.95;98667.78;10317555;28;20180;-70
2022/02/17 08:48:11;;;;;;;20.52;4.85;;;;;;;10.42;42.68;98687.38;10323772;28;20522;-70
2022/02/17 08:53:14;;;;;;;14.80;4.13;;;;;;;10.56;41.86;98695.00;10312624;28;20465;-71
2022/02/17 08:58:26;;;;;;;20.35;4.40;;;;;;;10.67;41.33;98707.19;10339493;28;20542;-70
2022/02/17 09:03:28;;;;;;;19.02;4.53;;;;;;;10.45;41.03;98710.69;10308755;28;20054;-70
2022/02/17 09:08:29;;;;;;;18.00;4.13;;;;;;;10.50;41.97;98719.00;10308956;28;20058;-71
2022/02/17 09:13:31;;;;;;;19.55;5.07;;;;;;;10.59;41.64;98723.50;10315073;28;20074;-71
2022/02/17 09:18:33;;;;;;;18.92;4.55;;;;;;;10.44;41.55;98742.97;10311755;28;20057;-70
2022/02/17 09:23:35;;;;;;;22.75;4.35;;;;;;;10.70;41.65;98746.19;10331413;28;20142;-70
2022/02/17 09:28:38;;;;;;;18.73;4.75;;;;;;;10.69;40.77;98747.13;10306742;28;20054;-70
2022/02/17 09:33:58;;;;;;;16.83;4.53;;;;;;;10.56;41.36;98735.97;10308174;28;20106;-71
2022/02/17 09:39:00;;;;;;;22.17;5.10;;;;;;;10.38;40.75;98762.59;10306560;28;20070;-70
2022/02/17 09:44:06;;;;;;;22.95;5.53;;;;;;;10.24;42.14;98791.56;10315374;28;20129;-71
2022/02/17 09:49:08;;;;;;;20.70;4.65;;;;;;;10.18;43.74;98815.56;10309871;28;20054;-71
2022/02/17 09:54:12;;;;;;;21.10;4.97;;;;;;;10.46;42.67;98775.91;10307868;28;20104;-66
2022/02/17 09:59:16;;;;;;;20.10;4.50;;;;;;;10.52;41.40;98798.16;10303447;28;20057;-66
2022/02/17 10:04:21;;;;;;;23.52;4.90;;;;;;;10.57;40.84;98803.00;10310891;28;20294;-66
2022/02/17 10:09:46;;;;;;;23.63;5.10;;;;;;;10.54;40.06;98832.00;10305711;28;20499;-66
2022/02/17 10:14:58;;;;;;;17.23;4.68;;;;;;;10.75;39.96;98812.84;10306572;28;20161;-66
2022/02/17 10:19:59;;;;;;;27.63;5.78;;;;;;;10.95;40.87;98825.19;10322643;28;20057;-66
2022/02/17 10:25:04;;;;;;;18.52;4.68;;;;;;;10.84;39.58;98845.31;10305164;28;20053;-66
2022/02/17 10:30:09;;;;;;;22.70;4.82;;;;;;;10.92;40.02;98867.31;10304499;28;20241;-66
2022/02/17 10:35:14;;;;;;;15.80;4.55;;;;;;;10.88;38.71;98863.28;10310483;28;20046;-66
2022/02/17 10:40:23;;;;;;;15.73;4.10;;;;;;;10.85;38.45;98871.34;10303942;28;20600;-65
2022/02/17 10:45:25;;;;;;;19.30;4.13;;;;;;;10.89;38.88;98870.16;10304697;28;20046;-66
2022/02/17 10:50:26;;;;;;;18.27;4.65;;;;;;;11.33;37.61;98900.72;10313390;28;20214;-65
2022/02/17 10:55:28;;;;;;;16.58;4.07;;;;;;;11.55;36.73;98907.72;10304700;28;20060;-66
2022/02/17 11:00:30;;;;;;;17.55;4.43;;;;;;;11.40;36.93;98919.41;10324002;28;20503;-66
2022/02/17 11:05:38;;;;;;;14.95;4.07;;;;;;;11.24;36.52;98912.75;10313831;28;20054;-66
2022/02/17 11:10:40;;;;;;;16.00;3.83;;;;;;;11.49;36.66;98903.78;10308437;28;20052;-65
2022/02/17 11:15:44;;;;;;;14.27;3.85;;;;;;;11.21;36.28;98928.69;10337654;28;20104;-65
2022/02/17 11:20:48;;;;;;;12.90;3.50;;;;;;;10.98;35.69;98924.38;10308882;28;20050;-66
2022/02/17 11:25:52;;;;;;;15.00;3.60;;;;;;;11.09;35.61;98921.78;10318942;28;20050;-66
2022/02/17 11:30:59;;;;;;;13.63;3.72;;;;;;;11.37;36.35;98923.09;10304953;28;20403;-65
2022/02/17 11:36:25;;;;;;;11.82;3.20;;;;;;;11.08;34.64;98924.53;10309509;28;20670;-65
2022/02/17 11:41:31;;;;;;;12.77;3.70;;;;;;;11.25;35.75;98929.28;10305608;28;20388;-66
2022/02/17 11:46:41;;;;;;;19.10;3.47;;;;;;;11.41;34.37;98923.69;10303072;28;20380;-65
2022/02/17 11:52:14;;;;;;;13.93;3.53;;;;;;;11.57;34.36;98924.97;10315351;28;20052;-66
2022/02/17 11:57:49;;;;;;;14.48;3.63;;;;;;;11.34;35.27;98925.13;10316771;28;20046;-66
2022/02/17 12:02:54;;;;;;;13.13;3.80;;;;;;;11.47;35.79;98933.66;10329338;28;20046;-66
2022/02/17 12:08:19;;;;;;;11.77;3.22;;;;;;;10.89;36.13;98968.75;10316354;28;20054;-66
2022/02/17 12:13:25;;;;;;;14.52;3.13;;;;;;;10.86;36.85;98982.03;10319904;28;20061;-65
2022/02/17 12:18:35;;;;;;;16.15;3.75;;;;;;;10.67;39.32;99011.34;10329617;28;20640;-66
2022/02/17 12:23:37;;;;;;;14.50;3.20;;;;;;;9.87;44.83;99026.91;10310720;28;20490;-66
2022/02/17 12:28:39;;;;;;;10.50;2.38;;;;;;;9.81;44.92;99045.63;10314523;28;20061;-66
2022/02/17 12:33:41;;;;;;;14.77;2.78;;;;;;;9.69;46.33;99057.72;10310377;28;20096;-66
2022/02/17 12:38:42;;;;;;;11.45;2.60;;;;;;;9.57;47.08;99059.41;10329962;28;20140;-66
2022/02/17 12:43:44;;;;;;;10.65;2.30;;;;;;;9.13;48.58;99051.19;10321408;28;20046;-66
2022/02/17 12:48:47;;;;;;;10.45;2.30;;;;;;;9.35;48.37;99048.78;10334538;28;20057;-65
2022/02/17 12:54:07;;;;;;;12.32;2.60;;;;;;;9.04;48.25;99045.72;10308393;28;20043;-66
2022/02/17 12:59:12;;;;;;;14.73;2.97;;;;;;;9.29;47.93;99048.34;10310506;28;20077;-66
2022/02/17 13:04:17;;;;;;;14.35;2.72;;;;;;;9.27;48.58;99045.84;10319467;28;20077;-66
2022/02/17 13:09:24;;;;;;;12.80;2.60;;;;;;;8.99;49.98;99053.88;10308140;28;20094;-66
2022/02/17 13:14:31;;;;;;;10.02;2.85;;;;;;;8.89;51.14;99076.28;10320625;28;20654;-66
2022/02/17 13:19:39;;;;;;;7.25;2.00;;;;;;;9.41;50.26;99066.63;10318115;28;20077;-65
2022/02/17 13:25:00;;;;;;;9.65;1.95;;;;;;;9.81;49.58;99056.06;10313413;28;20049;-65
2022/02/17 13:30:02;;;;;;;6.95;2.03;;;;;;;9.98;49.09;99042.63;10310566;28;20093;-65
2022/02/17 13:35:15;;;;;;;10.15;2.33;;;;;;;10.10;48.63;99036.53;10316697;28;20056;-65
2022/02/17 13:40:23;;;;;;;9.27;2.03;;;;;;;10.70;47.15;99031.22;10317168;28;20144;-66
2022/02/17 13:45:29;;;;;;;10.63;2.30;;;;;;;10.80;46.31;99000.81;10314144;28;20070;-66
2022/02/17 13:50:31;;;;;;;10.85;2.58;;;;;;;11.12;45.16;99013.16;10323199;28;20430;-66
2022/02/17 13:55:35;;;;;;;11.70;2.65;;;;;;;10.82;45.28;99010.22;10306900;28;20408;-67
2022/02/17 14:00:39;;;;;;;14.27;3.30;;;;;;;10.51;45.82;98997.75;10309790;28;20149;-66
2022/02/17 14:05:40;;;;;;;12.48;3.20;;;;;;;10.36;48.01;99045.91;10313305;28;20050;-65
2022/02/17 14:10:42;;;;;;;12.43;3.15;;;;;;;10.10;49.43;99080.94;10305904;28;20473;-65
2022/02/17 14:15:45;;;;;;;12.38;3.13;;;;;;;9.39;50.97;99081.53;10315495;28;20573;-66
2022/02/17 14:20:47;;;;;;;10.95;3.03;;;;;;;9.10;52.37;99116.56;10307421;28;20132;-66
2022/02/17 14:25:49;;;;;;;14.00;2.70;;;;;;;8.98;52.50;99127.81;10313859;28;20064;-65
2022/02/17 14:30:51;;;;;;;9.57;2.80;;;;;;;9.07;52.87;99155.06;10316248;28;20068;-66
2022/02/17 14:35:53;;;;;;;9.73;2.50;;;;;;;8.57;53.52;99160.94;10312812;28;20050;-66
2022/02/17 14:40:55;;;;;;;11.20;2.60;;;;;;;8.64;52.84;99167.44;10304061;28;20127;-66
2022/02/17 14:45:57;;;;;;;12.45;2.60;;;;;;;8.75;53.48;99116.28;10312880;28;20220;-65
2022/02/17 14:51:01;;;;;;;10.77;2.47;;;;;;;8.92;52.80;99120.41;10308531;28;20050;-65
2022/02/17 14:56:03;;;;;;;12.55;3.38;;;;;;;9.06;52.50;99114.28;10304498;28;20284;-66
2022/02/17 15:01:04;;;;;;;11.77;2.65;;;;;;;9.25;51.39;99114.72;10305173;28;20061;-65
2022/02/17 15:06:07;;;;;;;12.45;2.88;;;;;;;9.47;51.52;99117.56;10304714;28;20146;-66
2022/02/17 15:11:08;;;;;;;12.85;3.05;;;;;;;9.48;50.62;99130.50;10326516;28;20321;-66
2022/02/17 15:16:11;;;;;;;15.95;2.75;;;;;;;9.47;50.82;99144.50;10320822;28;20046;-66
2022/02/17 15:21:13;;;;;;;12.50;3.28;;;;;;;9.43;50.47;99163.06;10307362;28;20046;-65
2022/02/17 15:26:16;;;;;;;13.07;3.00;;;;;;;9.59;49.92;99166.31;10308168;28;20414;-65
2022/02/17 15:31:17;;;;;;;12.07;2.60;;;;;;;9.59;50.01;99185.44;10316762;28;20056;-65
2022/02/17 15:36:19;;;;;;;12.90;3.05;;;;;;;9.63;49.48;99176.44;10313351;28;20056;-66
2022/02/17 15:41:22;;;;;;;11.80;2.92;;;;;;;9.60;49.19;99194.09;10318590;28;20058;-66
2022/02/17 15:46:24;;;;;;;11.65;3.38;;;;;;;9.74;50.75;99201.03;10316432;28;20499;-66
2022/02/17 15:51:25;;;;;;;14.25;3.80;;;;;;;9.75;50.01;99215.75;10313680;28;20137;-65
2022/02/17 15:56:27;;;;;;;12.70;3.13;;;;;;;9.73;50.15;99220.25;10315382;28;20369;-65
2022/02/17 16:01:29;;;;;;;13.98;3.60;;;;;;;9.72;50.15;99236.84;10312061;28;20054;-65
2022/02/17 16:06:51;;;;;;;11.23;3.05;;;;;;;9.64;50.24;99232.97;10311111;28;20057;-64
2022/02/17 16:11:53;;;;;;;14.77;3.20;;;;;;;9.43;50.24;99239.59;10312672;28;20137;-65
2022/02/17 16:16:55;;;;;;;15.55;3.03;;;;;;;9.36;50.27;99238.31;10311241;28;20355;-64
2022/02/17 16:21:57;;;;;;;12.20;2.78;;;;;;;9.21;50.34;99256.75;10311512;28;20054;-65
2022/02/17 16:26:58;;;;;;;16.08;3.78;;;;;;;9.09;50.49;99261.00;10312390;28;20117;-65
2022/02/17 16:32:01;;;;;;;14.88;3.70;;;;;;;9.04;50.14;99267.41;10328596;28;20498;-64
2022/02/17 16:37:04;;;;;;;14.93;3.42;;;;;;;9.01;49.66;99278.91;10309738;28;20508;-64
2022/02/17 16:42:06;;;;;;;13.80;3.40;;;;;;;9.09;49.58;99287.06;10314369;28;20249;-64
2022/02/17 16:47:12;;;;;;;15.93;3.40;;;;;;;9.14;49.13;99303.25;10316304;28;20072;-64
2022/02/17 16:52:15;;;;;;;17.23;3.33;;;;;;;9.08;48.89;99315.84;10318986;28;20105;-64
2022/02/17 16:57:18;;;;;;;14.27;3.40;;;;;;;9.01;47.70;99304.16;10316537;28;20058;-64
2022/02/17 17:02:20;;;;;;;16.42;3.40;;;;;;;9.09;47.51;99301.88;10308826;28;20502;-64
2022/02/17 17:07:23;;;;;;;18.48;3.60;;;;;;;9.17;47.02;99323.94;10317607;28;20598;-64
2022/02/17 17:12:25;;;;;;;14.32;3.30;;;;;;;9.14;46.28;99334.56;10316445;28;20042;-64
2022/02/17 17:17:28;;;;;;;12.10;2.88;;;;;;;9.11;45.40;99367.84;10307257;28;20143;-64
2022/02/17 17:22:31;;;;;;;17.15;3.80;;;;;;;9.07;44.39;99356.78;10317930;28;20058;-65
2022/02/17 17:27:33;;;;;;;15.25;3.58;;;;;;;9.06;44.46;99364.66;10308300;28;20097;-71
2022/02/17 17:32:35;;;;;;;14.32;3.33;;;;;;;9.08;45.43;99388.88;10307596;28;20054;-71
2022/02/17 17:37:38;;;;;;;20.13;4.65;;;;;;;9.18;44.95;99408.28;10319274;28;20225;-71
2022/02/17 17:42:41;;;;;;;16.10;3.47;;;;;;;9.00;45.05;99397.19;10319518;28;20046;-71
2022/02/17 17:47:44;;;;;;;17.85;3.40;;;;;;;8.84;45.74;99405.13;10316664;28;20043;-72
2022/02/17 17:52:46;;;;;;;16.08;2.97;;;;;;;8.73;44.95;99423.19;10316444;28;20046;-71
2022/02/17 17:57:48;;;;;;;11.70;2.95;;;;;;;8.78;44.65;99438.53;10332379;28;20137;-72
2022/02/17 18:02:51;;;;;;;15.98;3.58;;;;;;;8.82;44.77;99435.66;10327596;28;20356;-72
2022/02/17 18:07:54;;;;;;;12.93;3.13;;;;;;;8.83;45.23;99449.56;10318413;28;20942;-72
2022/02/17 18:12:58;;;;;;;14.00;3.17;;;;;;;8.73;44.92;99472.72;10331427;28;20147;-72
2022/02/17 18:18:02;;;;;;;12.05;2.88;;;;;;;8.70;45.58;99472.91;10324639;28;20417;-72
2022/02/17 18:23:05;;;;;;;13.68;3.42;;;;;;;8.69;45.03;99479.03;10329615;28;20043;-71
2022/02/17 18:28:09;;;;;;;16.48;2.90;;;;;;;8.54;44.29;99489.53;10323456;28;20490;-72
2022/02/17 18:33:11;;;;;;;13.88;3.38;;;;;;;8.63;44.29;99509.84;10321164;28;20057;-72
2022/02/17 18:38:13;;;;;;;18.02;5.40;;;;;;;8.51;44.40;99520.97;10329190;28;20406;-72
2022/02/17 18:43:15;;;;;;;11.27;2.60;;;;;;;8.40;44.85;99526.81;10324189;28;20133;-72
2022/02/17 18:48:17;;;;;;;9.25;2.75;;;;;;;8.37;43.35;99546.97;10321223;28;20052;-72
2022/02/17 18:53:19;;;;;;;9.85;2.47;;;;;;;8.41;43.68;99543.28;10320822;28;20446;-72
2022/02/17 18:58:23;;;;;;;10.38;2.90;;;;;;;8.42;43.22;99547.56;10331782;28;20064;-71
2022/02/17 19:03:25;;;;;;;10.27;2.30;;;;;;;8.44;43.62;99530.94;10344432;28;20049;-71
2022/02/17 19:08:34;;;;;;;14.73;2.50;;;;;;;8.38;43.74;99544.31;10326122;28;20101;-72
2022/02/17 19:13:36;;;;;;;10.90;3.03;;;;;;;8.45;43.42;99536.97;10338334;28;20132;-71
2022/02/17 19:18:37;;;;;;;10.45;2.67;;;;;;;8.39;43.36;99539.91;10343237;28;20081;-72
2022/02/17 19:23:39;;;;;;;10.73;2.90;;;;;;;8.38;43.58;99543.47;10328749;28;20419;-72
2022/02/17 19:28:42;;;;;;;10.10;2.97;;;;;;;8.39;43.86;99532.09;10344559;28;20050;-72
2022/02/17 19:33:44;;;;;;;13.15;3.00;;;;;;;8.40;43.96;99529.44;10330776;28;20133;-71
2022/02/17 19:38:49;;;;;;;10.38;2.80;;;;;;;8.19;44.09;99516.75;10348759;28;20503;-72
2022/02/17 19:43:51;;;;;;;63.72;35.40;;;;;;;8.21;44.66;99501.88;10340591;28;20054;-71
2022/02/17 19:48:53;;;;;;;53.70;21.27;;;;;;;8.22;45.06;99514.00;10325892;28;20383;-71
2022/02/17 19:53:55;;;;;;;41.28;15.38;;;;;;;8.24;45.48;99509.53;10344157;28;20587;-72
2022/02/17 19:58:56;;;;;;;35.47;12.73;;;;;;;8.22;45.74;99512.22;10332485;28;20133;-72
2022/02/17 20:03:58;;;;;;;15.88;3.50;;;;;;;8.25;45.85;99530.28;10338917;28;20140;-71
2022/02/17 20:09:00;;;;;;;16.00;3.22;;;;;;;8.19;46.13;99522.81;10345488;28;20062;-72
2022/02/17 20:14:02;;;;;;;12.07;3.13;;;;;;;8.19;46.11;99528.03;10334383;28;20490;-71
2022/02/17 20:19:05;;;;;;;13.00;3.05;;;;;;;8.11;46.10;99524.16;10330362;28;20053;-72
2022/02/17 20:24:07;;;;;;;16.30;3.40;;;;;;;8.12;46.14;99525.88;10360569;28;20057;-71
2022/02/17 20:29:11;;;;;;;18.58;3.63;;;;;;;8.23;46.02;99539.97;10323549;28;20066;-71
2022/02/17 20:34:13;;;;;;;15.05;3.25;;;;;;;8.15;46.02;99536.09;10324889;28;20054;-71
2022/02/17 20:39:15;;;;;;;11.52;2.95;;;;;;;8.18;44.93;99541.16;10341790;28;20410;-71
2022/02/17 20:54:58;;;;;;;7.07;1.80;;;;;;;7.59;49.20;99575.63;10336248;28;20132;-70
2022/02/17 21:00:00;;;;;;;9.93;2.10;;;;;;;7.52;49.71;99572.50;10320840;28;20073;-71
2022/02/17 21:05:03;;;;;;;9.75;2.03;;;;;;;7.66;49.37;99564.78;10331824;28;20417;-71
2022/02/17 21:10:08;;;;;;;9.82;2.05;;;;;;;7.74;49.64;99560.03;10311822;28;20491;-71
2022/02/17 21:15:12;;;;;;;9.75;2.40;;;;;;;7.84;49.16;99542.13;10318576;28;20081;-71
2022/02/17 21:20:14;;;;;;;9.50;2.28;;;;;;;7.86;49.64;99556.75;10309603;28;20411;-72
2022/02/17 21:25:16;;;;;;;14.95;2.95;;;;;;;7.94;49.77;99559.78;10312813;28;20133;-71
2022/02/17 21:30:18;;;;;;;10.48;2.28;;;;;;;8.03;49.53;99548.84;10320724;28;20057;-72
2022/02/17 21:35:21;;;;;;;8.52;2.55;;;;;;;7.84;49.64;99548.19;10321734;28;20093;-72
2022/02/17 21:40:23;;;;;;;10.63;2.08;;;;;;;7.57;51.38;99554.88;10339389;28;20043;-72
2022/02/17 21:45:25;;;;;;;9.35;2.05;;;;;;;7.47;53.07;99558.06;10317912;28;20510;-71
2022/02/17 21:50:27;;;;;;;12.07;2.28;;;;;;;7.62;53.05;99560.69;10308797;28;20065;-71
2022/02/17 21:55:29;;;;;;;12.00;2.50;;;;;;;7.61;54.29;99569.41;10308672;28;20158;-71
2022/02/17 22:00:31;;;;;;;8.85;3.22;;;;;;;7.55;53.64;99556.72;10308423;28;20173;-71
2022/02/17 22:05:33;;;;;;;10.68;2.70;;;;;;;7.38;53.21;99561.13;10311165;28;20795;-71
2022/02/17 22:10:34;;;;;;;8.45;2.33;;;;;;;7.50;53.74;99563.94;10310572;28;20058;-71
2022/02/17 22:15:37;;;;;;;9.13;2.47;;;;;;;7.57;54.00;99557.47;10309252;28;20054;-71
2022/02/17 22:20:39;;;;;;;10.82;3.83;;;;;;;7.54;53.81;99555.03;10305626;28;20148;-71
2022/02/17 22:25:42;;;;;;;9.07;2.83;;;;;;;7.51;53.64;99555.19;10310346;28;20160;-71
2022/02/17 22:30:45;;;;;;;10.27;2.80;;;;;;;7.40;54.59;99557.53;10308342;28;20144;-71
2022/02/17 22:35:47;;;;;;;12.88;3.00;;;;;;;7.33;54.59;99543.16;10310630;28;20046;-71
2022/02/17 22:40:49;;;;;;;9.20;2.40;;;;;;;7.34;54.56;99538.81;10320149;28;20169;-71
2022/02/17 22:45:51;;;;;;;10.48;2.28;;;;;;;7.32;54.39;99523.28;10312712;28;20145;-71
2022/02/17 22:50:53;;;;;;;9.40;2.65;;;;;;;7.16;53.87;99522.41;10304562;28;20060;-70
2022/02/17 22:55:55;;;;;;;11.00;2.65;;;;;;;7.14;54.56;99522.47;10305116;28;20165;-70
2022/02/17 23:01:00;;;;;;;10.60;2.75;;;;;;;7.09;55.39;99527.09;10316884;28;20423;-70
2022/02/17 23:06:03;;;;;;;10.75;2.97;;;;;;;7.03;55.28;99522.22;10304447;28;20453;-70
2022/02/17 23:11:05;;;;;;;18.63;3.60;;;;;;;7.15;54.13;99520.72;10311288;28;20054;-70
2022/02/17 23:21:30;;;;;;;13.70;3.35;;;;;;;7.44;52.81;99537.41;10324415;28;20528;-70
2022/02/17 23:26:32;;;;;;;14.38;3.13;;;;;;;7.45;52.42;99519.09;10325937;28;20517;-70
2022/02/17 23:31:34;;;;;;;17.70;3.95;;;;;;;7.50;52.50;99529.25;10325143;28;20073;-71
2022/02/17 23:36:37;;;;;;;17.77;3.75;;;;;;;7.59;52.30;99516.59;10308780;28;20141;-70
2022/02/17 23:41:38;;;;;;;17.90;4.32;;;;;;;7.63;52.15;99512.06;10310542;28;20053;-70
2022/02/17 23:46:40;;;;;;;16.08;3.95;;;;;;;7.58;52.14;99511.47;10306250;28;20042;-70
2022/02/17 23:51:43;;;;;;;21.65;4.43;;;;;;;7.56;52.38;99500.31;10317547;28;20054;-71